createdAt,value
2017-04-12T00:00:23.966Z,10.40
2017-04-12T00:01:21.840Z,10.40
2017-04-12T00:02:19.853Z,10.50
2017-04-12T00:03:17.691Z,10.50
2017-04-12T00:04:15.570Z,10.50
2017-04-12T00:05:13.470Z,10.60
2017-04-12T00:06:11.316Z,10.60
2017-04-12T00:07:09.546Z,10.50
2017-04-12T00:08:07.376Z,10.50
2017-04-12T00:09:05.245Z,10.40
2017-04-12T00:10:03.114Z,10.40
2017-04-12T00:11:00.960Z,10.40
2017-04-12T00:11:58.791Z,10.40
2017-04-12T00:12:56.658Z,10.40
2017-04-12T00:13:54.498Z,10.40
2017-04-12T00:14:51.990Z,10.40
2017-04-12T00:15:49.882Z,10.40
2017-04-12T00:16:47.789Z,10.40
2017-04-12T00:17:45.635Z,10.40
2017-04-12T00:18:43.478Z,10.40
2017-04-12T00:19:41.323Z,10.30
2017-04-12T00:20:39.162Z,10.30
2017-04-12T00:21:37.040Z,10.20
2017-04-12T00:22:34.911Z,10.10
2017-04-12T00:23:32.843Z,10.10
2017-04-12T00:24:30.706Z,10.00
2017-04-12T00:25:28.558Z,10.00
2017-04-12T00:26:26.398Z,10.10
2017-04-12T00:27:24.290Z,10.10
2017-04-12T00:28:22.152Z,10.10
2017-04-12T00:29:20.026Z,10.10
2017-04-12T00:30:18.111Z,10.10
2017-04-12T00:31:16.009Z,10.00
2017-04-12T00:32:13.842Z,10.00
2017-04-12T00:33:11.754Z,10.00
2017-04-12T00:34:09.582Z,10.10
2017-04-12T00:35:07.419Z,10.10
2017-04-12T00:36:05.259Z,10.10
2017-04-12T00:37:03.103Z,10.10
2017-04-12T00:38:00.961Z,10.10
2017-04-12T00:38:58.874Z,10.10
2017-04-12T00:39:56.737Z,10.10
2017-04-12T00:40:54.188Z,10.10
2017-04-12T00:41:52.046Z,10.10
2017-04-12T00:42:49.868Z,10.10
2017-04-12T00:43:47.703Z,10.20
2017-04-12T00:44:46.008Z,10.20
2017-04-12T00:45:43.947Z,10.10
2017-04-12T00:46:41.787Z,10.20
2017-04-12T00:47:39.647Z,10.20
2017-04-12T00:48:37.487Z,10.20
2017-04-12T00:49:35.313Z,10.20
2017-04-12T00:50:33.184Z,10.20
2017-04-12T00:51:31.323Z,10.20
2017-04-12T00:52:29.210Z,10.20
2017-04-12T00:53:27.098Z,10.20
2017-04-12T00:54:24.949Z,10.20
2017-04-12T00:55:22.793Z,10.30
2017-04-12T00:56:20.683Z,10.30
2017-04-12T00:57:18.517Z,10.30
2017-04-12T00:58:16.330Z,10.30
2017-04-12T00:59:14.153Z,10.30
2017-04-12T01:00:12.006Z,10.30
2017-04-12T01:01:09.839Z,10.20
2017-04-12T01:02:07.754Z,10.20
2017-04-12T01:03:05.599Z,10.20
2017-04-12T01:04:03.127Z,10.20
2017-04-12T01:05:00.982Z,10.20
2017-04-12T01:05:58.820Z,10.20
2017-04-12T01:06:56.648Z,10.10
2017-04-12T01:07:54.546Z,10.00
2017-04-12T01:08:52.819Z,10.00
2017-04-12T01:09:50.689Z,10.00
2017-04-12T01:10:48.550Z,10.00
2017-04-12T01:11:46.526Z,10.00
2017-04-12T01:12:44.581Z,10.00
2017-04-12T01:13:42.507Z,9.90
2017-04-12T01:14:40.364Z,9.90
2017-04-12T01:15:38.209Z,9.80
2017-04-12T01:16:36.066Z,9.80
2017-04-12T01:17:33.973Z,9.80
2017-04-12T01:18:31.802Z,9.90
2017-04-12T01:19:29.703Z,9.90
2017-04-12T01:20:27.548Z,9.80
2017-04-12T01:21:25.411Z,9.80
2017-04-12T01:22:23.275Z,9.80
2017-04-12T01:23:21.137Z,9.70
2017-04-12T01:24:18.963Z,9.60
2017-04-12T01:25:16.854Z,9.50
2017-04-12T01:26:14.350Z,9.50
2017-04-12T01:27:12.211Z,9.30
2017-04-12T01:28:10.061Z,9.20
2017-04-12T01:29:07.906Z,9.30
2017-04-12T01:30:06.162Z,9.30
2017-04-12T01:31:04.455Z,9.30
2017-04-12T01:32:01.903Z,9.30
2017-04-12T01:32:59.731Z,9.40
2017-04-12T01:33:57.569Z,9.40
2017-04-12T01:34:55.506Z,9.40
2017-04-12T01:35:53.389Z,9.40
2017-04-12T01:36:51.293Z,9.40
2017-04-12T01:37:49.147Z,9.50
2017-04-12T01:38:46.998Z,9.50
2017-04-12T01:39:44.931Z,9.50
2017-04-12T01:40:42.786Z,9.50
2017-04-12T01:41:40.662Z,9.50
2017-04-12T01:42:38.583Z,9.50
2017-04-12T01:43:36.797Z,9.60
2017-04-12T01:44:34.638Z,9.60
2017-04-12T01:45:32.497Z,9.60
2017-04-12T01:46:30.333Z,9.60
2017-04-12T01:47:28.237Z,9.60
2017-04-12T01:48:26.148Z,9.60
2017-04-12T01:49:23.994Z,9.60
2017-04-12T01:50:21.862Z,9.60
2017-04-12T01:51:19.718Z,9.50
2017-04-12T01:52:17.940Z,9.50
2017-04-12T01:53:15.804Z,9.50
2017-04-12T01:54:13.811Z,9.50
2017-04-12T01:55:11.675Z,9.50
2017-04-12T01:56:09.522Z,9.50
2017-04-12T01:57:07.370Z,9.50
2017-04-12T01:58:05.226Z,9.50
2017-04-12T01:59:03.090Z,9.50
2017-04-12T02:00:01.026Z,9.50
2017-04-12T02:00:58.901Z,9.50
2017-04-12T02:01:57.113Z,9.50
2017-04-12T02:02:54.975Z,9.40
2017-04-12T02:03:52.802Z,9.40
2017-04-12T02:04:50.702Z,9.40
2017-04-12T02:05:48.606Z,9.40
2017-04-12T02:06:46.558Z,9.40
2017-04-12T02:07:44.411Z,9.30
2017-04-12T02:08:42.346Z,9.30
2017-04-12T02:09:40.190Z,9.40
2017-04-12T02:10:38.051Z,9.40
2017-04-12T02:11:35.966Z,9.40
2017-04-12T02:12:33.838Z,9.40
2017-04-12T02:13:31.399Z,9.40
2017-04-12T02:14:29.244Z,9.40
2017-04-12T02:15:27.114Z,9.40
2017-04-12T02:16:24.990Z,9.40
2017-04-12T02:17:22.943Z,9.40
2017-04-12T02:18:20.846Z,9.50
2017-04-12T02:19:18.685Z,9.50
2017-04-12T02:20:16.138Z,9.50
2017-04-12T02:21:13.985Z,9.50
2017-04-12T02:22:11.839Z,9.40
2017-04-12T02:23:09.796Z,9.50
2017-04-12T02:24:07.643Z,9.40
2017-04-12T02:25:05.523Z,9.40
2017-04-12T02:26:03.436Z,9.40
2017-04-12T02:27:00.895Z,9.40
2017-04-12T02:27:58.740Z,9.50
2017-04-12T02:28:56.649Z,9.50
2017-04-12T02:29:54.490Z,9.50
2017-04-12T02:30:52.355Z,9.50
2017-04-12T02:31:50.222Z,9.50
2017-04-12T02:32:48.097Z,9.50
2017-04-12T02:33:45.550Z,9.50
2017-04-12T02:34:43.459Z,9.50
2017-04-12T02:35:41.322Z,9.50
2017-04-12T02:36:39.179Z,9.50
2017-04-12T02:37:37.077Z,9.50
2017-04-12T02:38:34.928Z,9.40
2017-04-12T02:39:32.796Z,9.50
2017-04-12T02:40:30.702Z,9.50
2017-04-12T02:41:28.536Z,9.50
2017-04-12T02:42:26.412Z,9.50
2017-04-12T02:43:24.242Z,9.60
2017-04-12T02:44:22.093Z,9.50
2017-04-12T02:45:20.209Z,9.50
2017-04-12T02:46:18.099Z,9.50
2017-04-12T02:47:15.933Z,9.50
2017-04-12T02:48:13.848Z,9.40
2017-04-12T02:49:11.694Z,9.30
2017-04-12T02:50:09.564Z,9.30
2017-04-12T02:51:07.421Z,9.30
2017-04-12T02:52:05.310Z,9.20
2017-04-12T02:53:03.186Z,9.20
2017-04-12T02:54:01.038Z,9.20
2017-04-12T02:54:58.895Z,9.20
2017-04-12T02:55:56.731Z,9.20
2017-04-12T02:56:54.574Z,9.20
2017-04-12T02:57:52.475Z,9.30
2017-04-12T02:58:50.397Z,9.30
2017-04-12T02:59:48.267Z,9.30
2017-04-12T03:00:45.778Z,9.30
2017-04-12T03:01:43.606Z,9.20
2017-04-12T03:02:41.431Z,9.30
2017-04-12T03:03:39.738Z,9.20
2017-04-12T03:04:37.570Z,9.30
2017-04-12T03:05:35.398Z,9.30
2017-04-12T03:06:33.446Z,9.30
2017-04-12T03:07:31.298Z,9.30
2017-04-12T03:08:29.566Z,9.30
2017-04-12T03:09:27.507Z,9.30
2017-04-12T03:10:25.361Z,9.20
2017-04-12T03:11:23.196Z,9.10
2017-04-12T03:12:21.043Z,9.10
2017-04-12T03:13:18.914Z,9.00
2017-04-12T03:14:16.756Z,9.00
2017-04-12T03:15:14.662Z,9.10
2017-04-12T03:16:12.657Z,9.10
2017-04-12T03:17:10.506Z,9.00
2017-04-12T03:18:08.356Z,9.00
2017-04-12T03:19:06.198Z,8.90
2017-04-12T03:20:04.062Z,9.00
2017-04-12T03:21:01.979Z,9.00
2017-04-12T03:21:59.830Z,9.00
2017-04-12T03:22:57.715Z,9.10
2017-04-12T03:23:55.551Z,9.10
2017-04-12T03:24:53.382Z,9.10
2017-04-12T03:25:51.215Z,9.10
2017-04-12T03:26:49.106Z,9.10
2017-04-12T03:27:46.939Z,9.10
2017-04-12T03:28:44.367Z,9.10
2017-04-12T03:29:42.202Z,9.10
2017-04-12T03:30:40.070Z,9.10
2017-04-12T03:31:38.332Z,9.10
2017-04-12T03:32:36.205Z,9.10
2017-04-12T03:33:34.038Z,9.10
2017-04-12T03:34:31.894Z,9.10
2017-04-12T03:35:29.730Z,9.10
2017-04-12T03:36:27.586Z,9.10
2017-04-12T03:37:25.426Z,9.20
2017-04-12T03:38:23.330Z,9.20
2017-04-12T03:39:20.793Z,9.20
2017-04-12T03:40:18.630Z,9.20
2017-04-12T03:41:16.484Z,9.20
2017-04-12T03:42:14.354Z,9.20
2017-04-12T03:43:12.182Z,9.20
2017-04-12T03:44:10.186Z,9.20
2017-04-12T03:45:08.018Z,9.20
2017-04-12T03:46:06.222Z,9.20
2017-04-12T03:47:04.066Z,9.30
2017-04-12T03:48:01.916Z,9.30
2017-04-12T03:48:59.759Z,9.30
2017-04-12T03:49:58.139Z,9.30
2017-04-12T03:50:55.575Z,9.30
2017-04-12T03:51:53.419Z,9.20
2017-04-12T03:52:51.258Z,9.20
2017-04-12T03:53:49.215Z,9.20
2017-04-12T03:54:47.059Z,9.10
2017-04-12T03:55:44.972Z,9.10
2017-04-12T03:56:42.806Z,9.10
2017-04-12T03:57:40.669Z,9.00
2017-04-12T03:58:38.521Z,9.10
2017-04-12T03:59:36.399Z,9.10
2017-04-12T04:00:34.266Z,9.10
2017-04-12T04:01:32.195Z,9.10
2017-04-12T04:02:30.582Z,9.00
2017-04-12T04:03:28.487Z,9.10
2017-04-12T04:04:26.375Z,9.00
2017-04-12T04:05:24.293Z,9.00
2017-04-12T04:06:22.510Z,8.90
2017-04-12T04:07:20.435Z,8.90
2017-04-12T04:08:18.292Z,8.80
2017-04-12T04:09:16.561Z,8.80
2017-04-12T04:10:14.398Z,8.80
2017-04-12T04:11:12.262Z,8.80
2017-04-12T04:12:10.098Z,8.80
2017-04-12T04:13:08.014Z,8.80
2017-04-12T04:14:05.883Z,8.80
2017-04-12T04:15:03.794Z,8.90
2017-04-12T04:16:01.675Z,8.90
2017-04-12T04:16:59.546Z,8.90
2017-04-12T04:17:57.697Z,8.90
2017-04-12T04:18:55.570Z,8.90
2017-04-12T04:19:53.417Z,8.90
2017-04-12T04:20:51.269Z,8.90
2017-04-12T04:21:49.110Z,8.90
2017-04-12T04:22:46.959Z,8.80
2017-04-12T04:23:44.783Z,8.80
2017-04-12T04:24:42.669Z,8.80
2017-04-12T04:25:40.507Z,8.80
2017-04-12T04:26:38.366Z,8.80
2017-04-12T04:27:36.195Z,8.80
2017-04-12T04:28:34.035Z,8.80
2017-04-12T04:29:31.878Z,8.80
2017-04-12T04:30:29.747Z,8.80
2017-04-12T04:31:27.585Z,8.80
2017-04-12T04:32:25.426Z,8.80
2017-04-12T04:33:23.287Z,8.90
2017-04-12T04:34:21.508Z,8.90
2017-04-12T04:35:19.350Z,8.90
2017-04-12T04:36:17.251Z,8.90
2017-04-12T04:37:15.082Z,8.90
2017-04-12T04:38:12.908Z,8.90
2017-04-12T04:39:10.741Z,8.90
2017-04-12T04:40:08.594Z,8.80
2017-04-12T04:41:06.490Z,8.90
2017-04-12T04:42:04.435Z,8.80
2017-04-12T04:43:01.869Z,8.80
2017-04-12T04:43:59.697Z,8.80
2017-04-12T04:44:57.527Z,8.80
2017-04-12T04:45:55.378Z,8.80
2017-04-12T04:46:53.227Z,8.80
2017-04-12T04:47:51.195Z,8.80
2017-04-12T04:48:49.027Z,8.80
2017-04-12T04:49:47.549Z,8.70
2017-04-12T04:50:45.387Z,8.60
2017-04-12T04:51:43.231Z,8.60
2017-04-12T04:52:41.058Z,8.60
2017-04-12T04:53:38.973Z,8.60
2017-04-12T04:54:36.859Z,8.70
2017-04-12T04:55:34.706Z,8.70
2017-04-12T04:56:32.534Z,8.60
2017-04-12T04:57:29.977Z,8.60
2017-04-12T04:58:27.810Z,8.70
2017-04-12T04:59:25.712Z,8.70
2017-04-12T05:00:23.569Z,8.70
2017-04-12T05:01:21.406Z,8.70
2017-04-12T05:02:19.243Z,8.60
2017-04-12T05:03:17.097Z,8.70
2017-04-12T05:04:14.955Z,8.70
2017-04-12T05:05:12.855Z,8.70
2017-04-12T05:06:10.302Z,8.70
2017-04-12T05:07:08.155Z,8.80
2017-04-12T05:08:05.990Z,8.80
2017-04-12T05:09:04.106Z,8.70
2017-04-12T05:10:01.956Z,8.80
2017-04-12T05:10:59.831Z,8.80
2017-04-12T05:11:57.687Z,8.80
2017-04-12T05:12:55.523Z,8.80
2017-04-12T05:13:53.380Z,8.70
2017-04-12T05:14:51.589Z,8.80
2017-04-12T05:15:49.443Z,8.80
2017-04-12T05:16:47.351Z,8.80
2017-04-12T05:17:45.216Z,8.90
2017-04-12T05:18:43.115Z,8.90
2017-04-12T05:19:40.959Z,8.90
2017-04-12T05:20:38.787Z,9.00
2017-04-12T05:21:36.648Z,9.10
2017-04-12T05:22:34.572Z,9.10
2017-04-12T05:23:32.439Z,9.20
2017-04-12T05:24:30.327Z,9.20
2017-04-12T05:25:28.174Z,9.30
2017-04-12T05:26:26.396Z,9.30
2017-04-12T05:27:24.239Z,9.40
2017-04-12T05:28:22.094Z,9.40
2017-04-12T05:29:19.960Z,9.50
2017-04-12T05:30:18.065Z,9.50
2017-04-12T05:31:16.296Z,9.50
2017-04-12T05:32:14.180Z,9.40
2017-04-12T05:33:12.086Z,9.30
2017-04-12T05:34:09.946Z,9.30
2017-04-12T05:35:07.871Z,9.20
2017-04-12T05:36:05.800Z,9.10
2017-04-12T05:37:03.730Z,9.10
2017-04-12T05:38:02.057Z,9.10
2017-04-12T05:38:59.914Z,9.10
2017-04-12T05:39:57.825Z,9.00
2017-04-12T05:40:55.673Z,8.90
2017-04-12T05:41:53.736Z,8.80
2017-04-12T05:42:51.607Z,8.80
2017-04-12T05:43:49.448Z,8.80
2017-04-12T05:44:47.298Z,8.80
2017-04-12T05:45:45.155Z,8.90
2017-04-12T05:46:43.009Z,8.90
2017-04-12T05:47:41.159Z,9.00
2017-04-12T05:48:39.015Z,9.00
2017-04-12T05:49:36.493Z,9.00
2017-04-12T05:50:34.345Z,8.80
2017-04-12T05:51:32.219Z,8.80
2017-04-12T05:52:30.080Z,8.80
2017-04-12T05:53:27.993Z,8.90
2017-04-12T05:54:25.835Z,8.90
2017-04-12T05:55:23.757Z,9.00
2017-04-12T05:56:21.611Z,9.00
2017-04-12T05:57:19.475Z,9.00
2017-04-12T05:58:17.335Z,9.10
2017-04-12T05:59:15.255Z,9.10
2017-04-12T06:00:13.150Z,9.10
2017-04-12T06:01:11.023Z,9.20
2017-04-12T06:02:08.889Z,9.40
2017-04-12T06:03:06.749Z,9.50
2017-04-12T06:04:04.611Z,9.60
2017-04-12T06:05:02.504Z,9.70
2017-04-12T06:06:00.664Z,9.70
2017-04-12T06:06:58.519Z,9.70
2017-04-12T06:07:56.375Z,9.70
2017-04-12T06:08:54.346Z,9.70
2017-04-12T06:09:52.314Z,9.70
2017-04-12T06:10:50.213Z,9.70
2017-04-12T06:11:48.059Z,9.60
2017-04-12T06:12:45.579Z,9.60
2017-04-12T06:13:43.436Z,9.60
2017-04-12T06:14:41.323Z,9.70
2017-04-12T06:15:39.218Z,9.70
2017-04-12T06:16:37.149Z,9.80
2017-04-12T06:17:35.000Z,9.80
2017-04-12T06:18:32.846Z,9.90
2017-04-12T06:19:30.341Z,9.90
2017-04-12T06:20:28.195Z,10.00
2017-04-12T06:21:26.054Z,10.00
2017-04-12T06:22:23.935Z,10.10
2017-04-12T06:23:21.807Z,10.20
2017-04-12T06:24:19.680Z,10.20
2017-04-12T06:25:17.544Z,10.30
2017-04-12T06:26:15.071Z,10.30
2017-04-12T06:27:12.926Z,10.40
2017-04-12T06:28:10.831Z,10.40
2017-04-12T06:29:09.075Z,10.50
2017-04-12T06:30:06.934Z,10.60
2017-04-12T06:31:04.799Z,10.60
2017-04-12T06:32:02.671Z,10.70
2017-04-12T06:33:00.618Z,10.80
2017-04-12T06:33:58.609Z,10.90
2017-04-12T06:34:56.554Z,10.90
2017-04-12T06:35:54.473Z,11.00
2017-04-12T06:36:52.352Z,11.10
2017-04-12T06:37:50.221Z,11.10
2017-04-12T06:38:48.095Z,11.10
2017-04-12T06:39:46.011Z,11.20
2017-04-12T06:40:43.870Z,11.20
2017-04-12T06:41:41.331Z,11.20
2017-04-12T06:42:39.199Z,11.30
2017-04-12T06:43:37.053Z,11.30
2017-04-12T06:44:34.909Z,11.40
2017-04-12T06:45:33.193Z,11.40
2017-04-12T06:46:31.065Z,11.40
2017-04-12T06:47:28.974Z,11.30
2017-04-12T06:48:27.259Z,11.30
2017-04-12T06:49:25.123Z,11.30
2017-04-12T06:50:22.990Z,11.40
2017-04-12T06:51:20.882Z,11.40
2017-04-12T06:52:18.773Z,11.40
2017-04-12T06:53:16.621Z,11.50
2017-04-12T06:54:14.491Z,11.50
2017-04-12T06:55:12.366Z,11.60
2017-04-12T06:56:10.264Z,11.60
2017-04-12T06:57:09.095Z,11.60
2017-04-12T06:58:06.965Z,11.70
2017-04-12T06:59:04.854Z,11.70
2017-04-12T07:00:02.845Z,11.70
2017-04-12T07:01:00.723Z,11.80
2017-04-12T07:01:58.595Z,11.80
2017-04-12T07:02:57.303Z,11.80
2017-04-12T07:03:55.194Z,11.80
2017-04-12T07:04:53.047Z,11.80
2017-04-12T07:05:50.906Z,11.90
2017-04-12T07:06:48.791Z,11.90
2017-04-12T07:07:46.694Z,12.00
2017-04-12T07:08:44.607Z,12.00
2017-04-12T07:09:42.176Z,12.00
2017-04-12T07:10:40.022Z,12.00
2017-04-12T07:11:37.874Z,12.00
2017-04-12T07:12:35.735Z,12.00
2017-04-12T07:13:33.611Z,12.00
2017-04-12T07:14:31.526Z,12.00
2017-04-12T07:15:29.439Z,12.10
2017-04-12T07:16:27.769Z,12.10
2017-04-12T07:17:25.718Z,12.00
2017-04-12T07:18:23.617Z,12.00
2017-04-12T07:19:21.567Z,12.00
2017-04-12T07:20:19.460Z,12.00
2017-04-12T07:21:17.364Z,12.10
2017-04-12T07:22:15.258Z,12.20
2017-04-12T07:23:13.161Z,12.20
2017-04-12T07:24:11.115Z,12.30
2017-04-12T07:25:09.144Z,12.30
2017-04-12T07:26:07.051Z,12.40
2017-04-12T07:27:04.983Z,12.40
2017-04-12T07:28:02.857Z,12.50
2017-04-12T07:29:00.746Z,12.50
2017-04-12T07:29:58.698Z,12.60
2017-04-12T07:30:56.574Z,12.60
2017-04-12T07:31:54.767Z,12.60
2017-04-12T07:32:52.635Z,12.60
2017-04-12T07:33:50.606Z,12.60
2017-04-12T07:34:48.507Z,12.70
2017-04-12T07:35:46.395Z,12.70
2017-04-12T07:36:44.306Z,12.80
2017-04-12T07:37:42.276Z,12.80
2017-04-12T07:38:40.163Z,12.90
2017-04-12T07:39:38.129Z,12.90
2017-04-12T07:40:36.060Z,12.90
2017-04-12T07:41:34.074Z,12.90
2017-04-12T07:42:31.926Z,12.70
2017-04-12T07:43:29.826Z,12.70
2017-04-12T07:44:27.771Z,12.70
2017-04-12T07:45:25.681Z,12.70
2017-04-12T07:46:23.581Z,12.80
2017-04-12T07:47:21.478Z,12.90
2017-04-12T07:48:19.322Z,12.90
2017-04-12T07:49:17.296Z,13.00
2017-04-12T07:50:15.202Z,12.90
2017-04-12T07:51:13.115Z,12.70
2017-04-12T07:52:10.999Z,12.50
2017-04-12T07:53:08.881Z,12.40
2017-04-12T07:54:06.734Z,12.20
2017-04-12T07:55:04.681Z,12.30
2017-04-12T07:56:02.550Z,12.40
2017-04-12T07:57:00.402Z,12.50
2017-04-12T07:57:58.267Z,12.60
2017-04-12T07:58:56.150Z,12.80
2017-04-12T07:59:54.002Z,12.80
2017-04-12T08:00:58.058Z,12.70
2017-04-12T08:01:55.914Z,12.70
2017-04-12T08:02:53.801Z,12.70
2017-04-12T08:03:51.858Z,12.80
2017-04-12T08:04:49.826Z,12.90
2017-04-12T08:05:48.070Z,13.00
2017-04-12T08:06:45.954Z,13.10
2017-04-12T08:07:43.783Z,13.20
2017-04-12T08:08:41.629Z,13.40
2017-04-12T08:09:39.478Z,13.50
2017-04-12T08:10:36.940Z,13.50
2017-04-12T08:11:34.831Z,13.70
2017-04-12T08:12:32.735Z,13.80
2017-04-12T08:13:30.642Z,13.90
2017-04-12T08:14:28.502Z,13.90
2017-04-12T08:15:26.382Z,14.00
2017-04-12T08:16:24.246Z,14.00
2017-04-12T08:17:22.181Z,14.10
2017-04-12T08:18:20.095Z,14.00
2017-04-12T08:19:18.141Z,14.10
2017-04-12T08:20:16.006Z,14.10
2017-04-12T08:21:13.901Z,14.20
2017-04-12T08:22:11.740Z,14.20
2017-04-12T08:23:09.629Z,14.20
2017-04-12T08:24:07.535Z,14.20
2017-04-12T08:25:05.425Z,14.30
2017-04-12T08:26:03.294Z,14.30
2017-04-12T08:27:01.134Z,14.30
2017-04-12T08:27:58.991Z,14.30
2017-04-12T08:28:56.849Z,14.30
2017-04-12T08:29:54.742Z,14.40
2017-04-12T08:30:52.597Z,14.40
2017-04-12T08:31:50.464Z,14.50
2017-04-12T08:32:48.010Z,14.50
2017-04-12T08:33:45.854Z,14.40
2017-04-12T08:34:43.713Z,14.40
2017-04-12T08:35:41.622Z,14.40
2017-04-12T08:36:39.478Z,14.40
2017-04-12T08:37:37.346Z,14.50
2017-04-12T08:38:35.214Z,14.60
2017-04-12T08:39:33.555Z,14.70
2017-04-12T08:40:31.402Z,14.70
2017-04-12T08:41:29.322Z,14.70
2017-04-12T08:42:27.245Z,14.80
2017-04-12T08:43:25.130Z,14.90
2017-04-12T08:44:22.983Z,14.90
2017-04-12T08:45:20.927Z,14.90
2017-04-12T08:46:18.801Z,14.90
2017-04-12T08:47:16.713Z,15.00
2017-04-12T08:48:14.594Z,15.00
2017-04-12T08:49:12.485Z,15.10
2017-04-12T08:50:10.347Z,15.10
2017-04-12T08:51:08.206Z,15.00
2017-04-12T08:52:06.451Z,15.00
2017-04-12T08:53:04.412Z,14.90
2017-04-12T08:54:02.263Z,15.00
2017-04-12T08:55:00.167Z,14.90
2017-04-12T08:55:58.019Z,15.00
2017-04-12T08:56:55.870Z,15.00
2017-04-12T08:57:53.722Z,14.90
2017-04-12T08:58:51.614Z,14.90
2017-04-12T08:59:49.545Z,14.90
2017-04-12T09:00:47.488Z,14.80
2017-04-12T09:01:44.983Z,14.80
2017-04-12T09:02:42.870Z,14.80
2017-04-12T09:03:40.744Z,14.90
2017-04-12T09:04:38.649Z,14.90
2017-04-12T09:05:36.544Z,15.00
2017-04-12T09:06:34.410Z,15.10
2017-04-12T09:07:32.268Z,15.20
2017-04-12T09:08:30.159Z,15.20
2017-04-12T09:09:28.061Z,15.20
2017-04-12T09:10:26.003Z,15.10
2017-04-12T09:11:23.863Z,15.20
2017-04-12T09:12:21.731Z,15.30
2017-04-12T09:13:19.575Z,15.40
2017-04-12T09:14:17.435Z,15.40
2017-04-12T09:15:15.334Z,15.30
2017-04-12T09:16:13.245Z,15.30
2017-04-12T09:17:11.119Z,15.40
2017-04-12T09:18:08.979Z,15.40
2017-04-12T09:19:06.921Z,15.50
2017-04-12T09:20:04.783Z,15.50
2017-04-12T09:21:02.670Z,15.30
2017-04-12T09:22:00.591Z,15.30
2017-04-12T09:22:58.466Z,15.40
2017-04-12T09:23:56.751Z,15.50
2017-04-12T09:24:54.650Z,15.50
2017-04-12T09:25:52.530Z,15.60
2017-04-12T09:26:50.383Z,15.80
2017-04-12T09:27:48.291Z,15.80
2017-04-12T09:28:46.155Z,15.90
2017-04-12T09:29:44.051Z,16.00
2017-04-12T09:30:41.900Z,16.20
2017-04-12T09:31:39.750Z,16.30
2017-04-12T09:32:37.595Z,16.40
2017-04-12T09:33:35.071Z,16.40
2017-04-12T09:34:33.322Z,16.00
2017-04-12T09:35:31.154Z,15.80
2017-04-12T09:36:29.001Z,15.70
2017-04-12T09:37:26.838Z,15.80
2017-04-12T09:38:24.687Z,15.70
2017-04-12T09:39:22.679Z,15.80
2017-04-12T09:40:20.589Z,15.90
2017-04-12T09:41:18.520Z,16.00
2017-04-12T09:42:16.361Z,16.00
2017-04-12T09:43:14.571Z,16.00
2017-04-12T09:44:12.719Z,16.10
2017-04-12T09:45:10.617Z,16.20
2017-04-12T09:46:08.446Z,16.30
2017-04-12T09:47:06.939Z,16.40
2017-04-12T09:48:04.775Z,16.30
2017-04-12T09:49:02.654Z,16.10
2017-04-12T09:50:00.524Z,16.00
2017-04-12T09:50:58.434Z,15.90
2017-04-12T09:51:56.271Z,15.70
2017-04-12T09:52:54.146Z,15.60
2017-04-12T09:53:52.030Z,15.70
2017-04-12T09:54:49.878Z,15.70
2017-04-12T09:55:47.751Z,15.90
2017-04-12T09:56:45.629Z,16.00
2017-04-12T09:57:43.458Z,16.20
2017-04-12T09:58:41.294Z,16.30
2017-04-12T09:59:39.155Z,16.40
2017-04-12T10:00:37.098Z,16.50
2017-04-12T10:01:34.970Z,16.60
2017-04-12T10:02:32.860Z,16.70
2017-04-12T10:03:30.687Z,16.80
2017-04-12T10:04:28.511Z,16.90
2017-04-12T10:05:26.333Z,17.00
2017-04-12T10:06:24.197Z,17.10
2017-04-12T10:07:22.043Z,17.10
2017-04-12T10:08:19.959Z,17.20
2017-04-12T10:09:17.825Z,17.20
2017-04-12T10:10:15.690Z,17.30
2017-04-12T10:11:13.607Z,17.30
2017-04-12T10:12:11.502Z,17.30
2017-04-12T10:13:09.347Z,17.30
2017-04-12T10:14:07.262Z,17.30
2017-04-12T10:15:05.155Z,17.30
2017-04-12T10:16:03.011Z,17.40
2017-04-12T10:17:00.952Z,17.40
2017-04-12T10:17:58.790Z,17.40
2017-04-12T10:18:56.619Z,17.40
2017-04-12T10:19:54.498Z,17.30
2017-04-12T10:20:52.353Z,17.30
2017-04-12T10:21:50.235Z,17.30
2017-04-12T10:22:48.506Z,17.20
2017-04-12T10:23:46.693Z,17.10
2017-04-12T10:24:44.521Z,17.00
2017-04-12T10:25:42.405Z,17.00
2017-04-12T10:26:40.261Z,17.00
2017-04-12T10:27:38.142Z,17.10
2017-04-12T10:28:36.130Z,17.10
2017-04-12T10:29:34.006Z,17.00
2017-04-12T10:30:31.841Z,17.00
2017-04-12T10:31:29.754Z,17.00
2017-04-12T10:32:27.586Z,16.90
2017-04-12T10:33:25.443Z,17.00
2017-04-12T10:34:23.686Z,16.90
2017-04-12T10:35:21.567Z,16.90
2017-04-12T10:36:19.033Z,16.90
2017-04-12T10:37:16.912Z,16.90
2017-04-12T10:38:14.751Z,16.90
2017-04-12T10:39:12.630Z,16.90
2017-04-12T10:40:10.465Z,17.00
2017-04-12T10:41:08.299Z,17.10
2017-04-12T10:42:06.536Z,17.10
2017-04-12T10:43:04.410Z,17.20
2017-04-12T10:44:02.274Z,17.30
2017-04-12T10:45:00.139Z,17.40
2017-04-12T10:45:57.982Z,17.50
2017-04-12T10:46:55.423Z,17.50
2017-04-12T10:47:53.334Z,17.40
2017-04-12T10:48:51.314Z,17.40
2017-04-12T10:49:49.162Z,17.50
2017-04-12T10:50:47.151Z,17.60
2017-04-12T10:51:44.983Z,17.70
2017-04-12T10:52:42.821Z,17.70
2017-04-12T10:53:40.654Z,17.80
2017-04-12T10:54:38.594Z,17.90
2017-04-12T10:55:36.426Z,18.00
2017-04-12T10:56:34.274Z,18.00
2017-04-12T10:57:32.237Z,18.00
2017-04-12T10:58:30.174Z,18.00
2017-04-12T10:59:28.020Z,17.90
2017-04-12T11:00:25.907Z,17.80
2017-04-12T11:01:23.342Z,17.80
2017-04-12T11:02:21.172Z,17.80
2017-04-12T11:03:19.003Z,17.70
2017-04-12T11:04:16.838Z,17.70
2017-04-12T11:05:14.685Z,17.70
2017-04-12T11:06:12.599Z,17.80
2017-04-12T11:07:10.422Z,17.70
2017-04-12T11:08:08.260Z,17.60
2017-04-12T11:09:06.198Z,17.60
2017-04-12T11:10:04.071Z,17.60
2017-04-12T11:11:01.935Z,17.60
2017-04-12T11:11:59.810Z,17.70
2017-04-12T11:12:57.658Z,17.70
2017-04-12T11:13:55.526Z,17.80
2017-04-12T11:14:53.358Z,17.80
2017-04-12T11:15:51.223Z,17.90
2017-04-12T11:16:49.473Z,17.90
2017-04-12T11:17:47.350Z,17.90
2017-04-12T11:18:45.199Z,17.90
2017-04-12T11:19:43.063Z,17.90
2017-04-12T11:20:40.930Z,17.90
2017-04-12T11:21:38.770Z,17.90
2017-04-12T11:22:36.614Z,17.90
2017-04-12T11:23:34.512Z,17.90
2017-04-12T11:24:32.399Z,18.00
2017-04-12T11:25:30.287Z,18.10
2017-04-12T11:26:28.126Z,18.10
2017-04-12T11:27:25.954Z,18.10
2017-04-12T11:28:23.670Z,18.10
2017-04-12T11:29:21.571Z,18.20
2017-04-12T11:30:20.146Z,18.20
2017-04-12T11:31:17.981Z,18.20
2017-04-12T11:32:15.845Z,18.20
2017-04-12T11:33:13.707Z,18.20
2017-04-12T11:34:11.552Z,18.20
2017-04-12T11:35:09.420Z,18.20
2017-04-12T11:36:07.306Z,18.20
2017-04-12T11:37:05.547Z,18.30
2017-04-12T11:38:03.398Z,18.40
2017-04-12T11:39:01.266Z,18.50
2017-04-12T11:39:59.104Z,18.50
2017-04-12T11:40:57.046Z,18.60
2017-04-12T11:41:54.887Z,18.80
2017-04-12T11:42:52.722Z,18.80
2017-04-12T11:43:50.547Z,18.60
2017-04-12T11:44:48.399Z,18.50
2017-04-12T11:45:46.262Z,18.50
2017-04-12T11:46:44.168Z,18.50
2017-04-12T11:47:42.002Z,18.50
2017-04-12T11:48:39.854Z,18.50
2017-04-12T11:49:37.683Z,18.50
2017-04-12T11:50:35.508Z,18.60
2017-04-12T11:51:33.355Z,18.60
2017-04-12T11:52:31.253Z,18.70
2017-04-12T11:53:29.180Z,18.70
2017-04-12T11:54:27.027Z,18.80
2017-04-12T11:55:24.874Z,18.90
2017-04-12T11:56:22.774Z,19.00
2017-04-12T11:57:20.633Z,19.10
2017-04-12T11:58:18.553Z,19.20
2017-04-12T11:59:16.432Z,19.20
2017-04-12T12:00:14.275Z,19.30
2017-04-12T12:01:12.561Z,19.30
2017-04-12T12:02:10.450Z,19.40
2017-04-12T12:03:08.306Z,19.30
2017-04-12T12:04:06.202Z,19.40
2017-04-12T12:05:04.126Z,19.50
2017-04-12T12:06:01.958Z,19.60
2017-04-12T12:06:59.803Z,19.70
2017-04-12T12:07:57.650Z,19.90
2017-04-12T12:08:55.500Z,20.00
2017-04-12T12:09:53.370Z,20.10
2017-04-12T12:10:51.212Z,20.00
2017-04-12T12:11:49.062Z,20.00
2017-04-12T12:12:46.520Z,20.00
2017-04-12T12:13:44.367Z,19.90
2017-04-12T12:14:42.243Z,19.80
2017-04-12T12:15:40.110Z,19.90
2017-04-12T12:16:37.945Z,20.00
2017-04-12T12:17:35.810Z,20.00
2017-04-12T12:18:33.741Z,19.80
2017-04-12T12:19:31.579Z,19.80
2017-04-12T12:20:29.410Z,19.90
2017-04-12T12:21:27.315Z,19.90
2017-04-12T12:22:25.156Z,19.60
2017-04-12T12:23:22.998Z,19.20
2017-04-12T12:24:20.828Z,18.90
2017-04-12T12:25:18.738Z,18.80
2017-04-12T12:26:16.605Z,18.90
2017-04-12T12:27:14.558Z,19.00
2017-04-12T12:28:12.416Z,19.00
2017-04-12T12:29:10.257Z,18.80
2017-04-12T12:30:08.093Z,18.60
2017-04-12T12:31:05.988Z,18.50
2017-04-12T12:32:03.859Z,18.50
2017-04-12T12:33:01.778Z,18.60
2017-04-12T12:33:59.634Z,18.70
2017-04-12T12:34:57.573Z,18.60